createdAt,value
2018-10-01T00:00:58.902Z,99995.40
2018-10-01T00:03:28.465Z,99989.80
2018-10-01T00:05:58.046Z,99986.75
2018-10-01T00:08:27.651Z,99984.24
2018-10-01T00:10:57.168Z,99979.88
2018-10-01T00:13:26.664Z,99977.95
2018-10-01T00:15:56.192Z,99983.09
2018-10-01T00:18:25.674Z,99982.61
2018-10-01T00:21:00.195Z,99975.85
2018-10-01T00:23:29.682Z,99968.47
2018-10-01T00:25:59.206Z,99965.45
2018-10-01T00:28:28.754Z,99957.06
2018-10-01T00:30:58.398Z,99949.97
2018-10-01T00:33:27.947Z,99952.23
2018-10-01T00:35:57.442Z,99952.50
2018-10-01T00:38:27.025Z,99953.87
2018-10-01T00:40:56.563Z,99943.30
2018-10-01T00:43:26.109Z,99943.76
2018-10-01T00:45:55.622Z,99936.16
2018-10-01T00:48:25.134Z,99931.82
2018-10-01T00:50:54.655Z,99931.23
2018-10-01T00:53:24.148Z,99929.64
2018-10-01T00:55:53.679Z,99922.50
2018-10-01T00:58:23.169Z,99924.74
2018-10-01T01:00:52.688Z,99914.64
2018-10-01T01:03:22.175Z,99921.47
2018-10-01T01:05:51.719Z,99917.38
2018-10-01T01:08:21.238Z,99913.87
2018-10-01T01:10:50.762Z,99906.28
2018-10-01T01:13:20.276Z,99910.84
2018-10-01T01:15:50.090Z,99912.28
2018-10-01T01:18:19.580Z,99905.89
2018-10-01T01:20:49.149Z,99903.46
2018-10-01T01:23:18.755Z,99906.18
2018-10-01T01:25:48.274Z,99901.52
2018-10-01T01:28:17.822Z,99860.11
2018-10-01T01:30:47.343Z,99894.81
2018-10-01T01:33:16.864Z,99889.89
2018-10-01T01:35:46.435Z,99895.06
2018-10-01T01:38:15.919Z,99895.34
2018-10-01T01:40:45.443Z,99881.19
2018-10-01T01:43:14.980Z,99879.13
2018-10-01T01:45:44.506Z,99874.58
2018-10-01T01:48:14.039Z,99872.67
2018-10-01T01:50:43.524Z,99869.92
2018-10-01T01:53:13.020Z,99867.47
2018-10-01T01:55:42.508Z,99862.52
2018-10-01T01:58:12.033Z,99860.59
2018-10-01T02:00:41.515Z,99860.91
2018-10-01T02:03:11.038Z,99854.84
2018-10-01T02:05:40.549Z,99850.03
2018-10-01T02:08:10.027Z,99848.35
2018-10-01T02:10:39.546Z,99850.03
2018-10-01T02:13:09.052Z,99850.75
2018-10-01T02:15:38.635Z,99852.44
2018-10-01T02:18:08.106Z,99842.63
2018-10-01T02:20:37.642Z,99842.63
2018-10-01T02:23:07.206Z,99842.88
2018-10-01T02:25:36.750Z,99836.96
2018-10-01T02:28:06.577Z,99836.69
2018-10-01T02:30:36.071Z,99831.01
2018-10-01T02:33:05.691Z,99837.50
2018-10-01T02:35:35.216Z,99835.11
2018-10-01T02:38:04.776Z,99829.66
2018-10-01T02:40:34.400Z,99825.29
2018-10-01T02:43:03.936Z,99828.28
2018-10-01T02:45:33.451Z,99825.86
2018-10-01T02:48:03.010Z,99825.29
2018-10-01T02:50:32.511Z,99811.82
2018-10-01T02:55:12.119Z,99812.38
2018-10-01T02:57:41.695Z,99808.83
2018-10-01T03:00:11.322Z,99811.55
2018-10-01T03:02:41.111Z,99807.16
2018-10-01T03:05:10.575Z,99806.67
2018-10-01T03:07:40.242Z,99801.13
2018-10-01T03:10:09.799Z,99802.22
2018-10-01T03:12:39.327Z,99795.44
2018-10-01T03:15:09.003Z,99793.55
2018-10-01T03:17:38.556Z,99793.77
2018-10-01T03:20:08.707Z,99795.68
2018-10-01T03:22:38.208Z,99798.27
2018-10-01T03:25:07.882Z,99793.62
2018-10-01T03:27:37.368Z,99787.09
2018-10-01T03:30:07.406Z,99788.51
2018-10-01T03:32:36.991Z,99785.72
2018-10-01T03:35:06.619Z,99786.02
2018-10-01T03:37:36.115Z,99782.97
2018-10-01T03:40:05.942Z,99776.74
2018-10-01T03:42:35.419Z,99778.30
2018-10-01T03:45:05.432Z,99771.26
2018-10-01T03:47:34.906Z,99777.52
2018-10-01T03:50:04.567Z,99766.03
2018-10-01T03:52:34.203Z,99769.01
2018-10-01T03:55:03.898Z,99768.77
2018-10-01T03:57:33.486Z,99763.24
2018-10-01T04:00:03.044Z,99766.98
2018-10-01T04:02:32.589Z,99764.66
2018-10-01T04:05:02.077Z,99757.61
2018-10-01T04:07:31.600Z,99758.11
2018-10-01T04:10:01.120Z,99752.69
2018-10-01T04:12:30.786Z,99752.77
2018-10-01T04:15:00.313Z,99749.21
2018-10-01T04:17:29.917Z,99745.30
2018-10-01T04:19:59.409Z,99739.02
2018-10-01T04:22:34.453Z,99740.66
2018-10-01T04:25:04.168Z,99733.58
2018-10-01T04:27:33.746Z,99737.13
2018-10-01T04:30:03.358Z,99740.95
2018-10-01T04:32:32.834Z,99733.05
2018-10-01T04:35:02.378Z,99729.27
2018-10-01T04:37:31.911Z,99725.99
2018-10-01T04:40:01.427Z,99720.79
2018-10-01T04:42:31.009Z,99729.49
2018-10-01T04:45:00.515Z,99723.81
2018-10-01T04:47:30.050Z,99715.67
2018-10-01T04:49:59.650Z,99715.91
2018-10-01T04:52:29.234Z,99711.89
2018-10-01T04:54:58.724Z,99710.23
2018-10-01T04:57:28.254Z,99716.52
2018-10-01T04:59:57.778Z,99717.88
2018-10-01T05:02:27.291Z,99719.25
2018-10-01T05:04:56.858Z,99718.91
2018-10-01T05:07:26.393Z,99715.39
2018-10-01T05:09:55.982Z,99716.80
2018-10-01T05:12:25.928Z,99714.94
2018-10-01T05:14:55.634Z,99720.98
2018-10-01T05:17:25.119Z,99714.14
2018-10-01T05:19:54.776Z,99714.66
2018-10-01T05:22:24.330Z,99711.98
2018-10-01T05:24:53.930Z,99720.98
2018-10-01T05:27:23.525Z,99725.17
2018-10-01T05:29:53.033Z,99719.63
2018-10-01T05:32:22.648Z,99718.23
2018-10-01T05:34:52.191Z,99709.75
2018-10-01T05:37:22.034Z,99710.08
2018-10-01T05:39:51.601Z,99713.41
2018-10-01T05:42:21.229Z,99709.67
2018-10-01T05:44:50.815Z,99715.27
2018-10-01T05:47:20.438Z,99706.92
2018-10-01T05:49:49.996Z,99710.22
2018-10-01T05:52:19.636Z,99708.61
2018-10-01T05:54:49.170Z,99602.06
2018-10-01T05:57:18.754Z,99698.03
2018-10-01T05:59:48.255Z,99701.63
2018-10-01T06:02:17.915Z,99693.70
2018-10-01T06:04:47.440Z,99704.37
2018-10-01T06:07:17.010Z,99696.28
2018-10-01T06:09:46.554Z,99697.16
2018-10-01T06:12:16.103Z,99701.02
2018-10-01T06:14:46.235Z,99696.48
2018-10-01T06:17:15.758Z,99691.77
2018-10-01T06:19:45.379Z,99692.91
2018-10-01T06:22:15.254Z,99691.52
2018-10-01T06:24:44.795Z,99692.39
2018-10-01T06:27:14.352Z,99689.87
2018-10-01T06:29:43.890Z,99695.63
2018-10-01T06:32:13.432Z,99692.91
2018-10-01T06:34:42.935Z,99693.20
2018-10-01T06:37:12.487Z,99688.25
2018-10-01T06:39:42.008Z,99696.43
2018-10-01T06:42:11.601Z,99692.58
2018-10-01T06:44:41.113Z,99693.14
2018-10-01T06:47:10.691Z,99686.08
2018-10-01T06:49:40.332Z,99684.72
2018-10-01T06:52:09.826Z,99689.92
2018-10-01T06:54:39.397Z,99690.41
2018-10-01T06:57:08.953Z,99678.70
2018-10-01T06:59:38.538Z,99679.82
2018-10-01T07:02:08.219Z,99687.49
2018-10-01T07:04:37.817Z,99683.11
2018-10-01T07:07:07.575Z,99688.06
2018-10-01T07:09:37.118Z,99684.22
2018-10-01T07:12:06.692Z,99685.06
2018-10-01T07:14:36.171Z,99683.45
2018-10-01T07:17:05.878Z,99679.08
2018-10-01T07:19:35.394Z,99688.66
2018-10-01T07:22:05.157Z,99682.35
2018-10-01T07:24:34.764Z,99684.27
2018-10-01T07:27:04.373Z,99684.27
2018-10-01T07:29:33.891Z,99684.28
2018-10-01T07:32:03.463Z,99680.77
2018-10-01T07:34:33.103Z,99681.28
2018-10-01T07:37:02.627Z,99676.08
2018-10-01T07:39:32.197Z,99683.76
2018-10-01T07:42:02.475Z,99672.03
2018-10-01T07:44:32.091Z,99673.11
2018-10-01T07:47:01.596Z,99671.22
2018-10-01T07:49:31.243Z,99669.61
2018-10-01T07:52:00.826Z,99662.79
2018-10-01T07:54:30.449Z,99657.63
2018-10-01T07:56:59.940Z,99659.80
2018-10-01T07:59:29.532Z,99657.07
2018-10-01T08:01:59.071Z,99660.61
2018-10-01T08:04:29.094Z,99659.31
2018-10-01T08:06:58.633Z,99662.05
2018-10-01T08:09:28.260Z,99655.52
2018-10-01T08:11:57.704Z,99655.77
2018-10-01T08:14:27.270Z,99645.11
2018-10-01T08:16:56.835Z,99642.35
2018-10-01T08:19:26.375Z,99641.86
2018-10-01T08:21:55.902Z,99637.22
2018-10-01T08:24:26.237Z,99639.97
2018-10-01T08:26:56.000Z,99633.44
2018-10-01T08:29:25.653Z,99636.43
2018-10-01T08:31:55.200Z,99626.32
2018-10-01T08:34:24.735Z,99626.30
2018-10-01T08:36:54.274Z,99619.14
2018-10-01T08:39:23.827Z,99613.39
2018-10-01T08:41:53.463Z,99620.48
2018-10-01T08:44:23.083Z,99612.64
2018-10-01T08:46:52.638Z,99613.72
2018-10-01T08:49:27.243Z,99610.46
2018-10-01T08:52:03.883Z,99614.82
2018-10-01T08:54:35.536Z,99614.58
2018-10-01T08:57:06.525Z,99610.44
2018-10-01T08:59:37.004Z,99603.92
2018-10-01T09:02:06.730Z,99610.22
2018-10-01T09:04:36.916Z,99602.84
2018-10-01T09:07:06.541Z,99598.19
2018-10-01T09:09:36.108Z,99594.37
2018-10-01T09:12:05.666Z,99589.72
2018-10-01T09:14:35.273Z,99485.64
2018-10-01T09:17:04.926Z,99585.09
2018-10-01T09:19:34.463Z,99576.91
2018-10-01T09:22:03.973Z,99573.61
2018-10-01T09:24:33.616Z,99579.36
2018-10-01T09:27:03.202Z,99580.18
2018-10-01T09:29:32.851Z,99571.16
2018-10-01T09:32:02.501Z,99573.35
2018-10-01T09:34:32.030Z,99567.33
2018-10-01T09:37:01.568Z,99568.96
2018-10-01T09:39:31.151Z,99574.44
2018-10-01T09:42:00.705Z,99573.05
2018-10-01T09:44:30.339Z,99564.30
2018-10-01T09:46:59.903Z,99513.24
2018-10-01T09:49:30.752Z,99557.22
2018-10-01T09:52:00.285Z,99563.78
2018-10-01T09:54:29.927Z,99559.39
2018-10-01T09:56:59.661Z,99560.23
2018-10-01T09:59:29.663Z,99558.87
2018-10-01T10:01:59.293Z,99556.66
2018-10-01T10:04:28.775Z,99556.95
2018-10-01T10:06:58.660Z,99550.94
2018-10-01T10:09:28.463Z,99550.38
2018-10-01T10:11:58.070Z,99551.23
2018-10-01T10:14:27.628Z,99487.59
2018-10-01T10:16:57.227Z,99543.27
2018-10-01T10:19:26.797Z,99543.54
2018-10-01T10:21:56.391Z,99542.70
2018-10-01T10:24:26.479Z,99533.42
2018-10-01T10:26:56.044Z,99533.41
2018-10-01T10:29:26.512Z,99532.86
2018-10-01T10:31:56.080Z,99530.95
2018-10-01T10:34:26.704Z,99528.73
2018-10-01T10:36:56.596Z,99526.27
2018-10-01T10:39:26.917Z,99512.33
2018-10-01T10:41:58.151Z,99520.00
2018-10-01T10:44:27.743Z,99516.70
2018-10-01T10:46:57.242Z,99519.72
2018-10-01T10:49:26.805Z,99507.92
2018-10-01T10:51:56.387Z,99502.75
2018-10-01T10:54:26.031Z,99505.47
2018-10-01T10:56:55.646Z,99502.41
2018-10-01T10:59:25.268Z,99496.40
2018-10-01T11:01:54.942Z,99498.56
2018-10-01T11:04:24.466Z,99493.36
2018-10-01T11:06:54.075Z,99499.39
2018-10-01T11:09:23.848Z,99498.28
2018-10-01T11:11:53.389Z,99492.61
2018-10-01T11:14:23.121Z,99489.60
2018-10-01T11:16:52.578Z,99495.88
2018-10-01T11:19:22.344Z,99490.99
2018-10-01T11:21:51.914Z,99482.50
2018-10-01T11:24:21.651Z,99485.47
2018-10-01T11:26:51.564Z,99484.09
2018-10-01T11:29:21.100Z,99480.80
2018-10-01T11:31:50.884Z,99473.96
2018-10-01T11:34:20.390Z,99475.87
2018-10-01T11:36:49.950Z,99471.48
2018-10-01T11:39:19.624Z,99467.59
2018-10-01T11:41:49.194Z,99462.99
2018-10-01T11:44:18.822Z,99461.63
2018-10-01T11:46:48.490Z,99465.44
2018-10-01T11:49:18.158Z,99463.78
2018-10-01T11:51:47.799Z,99458.30
2018-10-01T11:54:17.457Z,99469.20
2018-10-01T11:56:47.241Z,99460.98
2018-10-01T11:59:16.915Z,99452.55
2018-10-01T12:01:46.607Z,99455.24
2018-10-01T12:04:16.352Z,99454.71
2018-10-01T12:06:45.952Z,99446.52
2018-10-01T12:09:15.551Z,99445.41
2018-10-01T12:11:45.244Z,99440.55
2018-10-01T12:14:14.903Z,99438.64
2018-10-01T12:16:44.533Z,99434.73
2018-10-01T12:19:14.072Z,99434.15
2018-10-01T12:21:43.818Z,99438.31
2018-10-01T12:24:13.438Z,99436.95
2018-10-01T12:26:43.074Z,99428.73
2018-10-01T12:29:12.702Z,99424.89
2018-10-01T12:31:42.370Z,99320.27
2018-10-01T12:34:11.975Z,99426.31
2018-10-01T12:36:41.653Z,99423.92
2018-10-01T12:39:11.534Z,99414.64
2018-10-01T12:41:41.126Z,99412.94
2018-10-01T12:44:11.188Z,99406.14
2018-10-01T12:46:41.035Z,99407.75
2018-10-01T12:49:10.805Z,99407.92
2018-10-01T12:51:43.773Z,99404.58
2018-10-01T12:54:14.086Z,99313.55
2018-10-01T12:56:43.876Z,99397.92
2018-10-01T12:59:13.591Z,99402.03
2018-10-01T13:01:43.411Z,99391.84
2018-10-01T13:04:13.881Z,99388.15
2018-10-01T13:06:43.707Z,99378.51
2018-10-01T13:09:13.871Z,99287.88
2018-10-01T13:11:44.170Z,99387.03
2018-10-01T13:14:13.949Z,99383.45
2018-10-01T13:16:43.630Z,99382.05
2018-10-01T13:19:13.339Z,99383.86
2018-10-01T13:21:42.974Z,99382.98
2018-10-01T13:24:12.743Z,99387.31
2018-10-01T13:26:42.407Z,99299.02
2018-10-01T13:29:12.070Z,99377.09
2018-10-01T13:31:41.959Z,99385.03
2018-10-01T13:34:11.535Z,99377.30
2018-10-01T13:36:41.422Z,99373.78
2018-10-01T13:39:12.523Z,99373.23
2018-10-01T13:41:42.381Z,99372.88
2018-10-01T13:44:12.128Z,99369.77
2018-10-01T13:46:41.691Z,99370.50
2018-10-01T13:49:11.268Z,99370.22
2018-10-01T13:51:40.871Z,99370.22
2018-10-01T13:54:10.649Z,99369.34
2018-10-01T13:56:40.225Z,99371.35
2018-10-01T13:59:09.737Z,99377.67
2018-10-01T14:01:39.383Z,99373.25
2018-10-01T14:04:08.837Z,99372.40
2018-10-01T14:06:38.407Z,99378.06
2018-10-01T14:09:09.706Z,99368.13
2018-10-01T14:11:39.478Z,99373.64
2018-10-01T14:14:09.099Z,99370.69
2018-10-01T14:16:38.852Z,99373.64
2018-10-01T14:19:08.661Z,99380.84
2018-10-01T14:21:38.468Z,99377.86
2018-10-01T14:24:08.165Z,99369.25
2018-10-01T14:26:37.818Z,99378.77
2018-10-01T14:29:07.496Z,99370.02
2018-10-01T14:31:37.403Z,99375.70
2018-10-01T14:34:06.971Z,99373.56
2018-10-01T14:36:36.589Z,99374.62
2018-10-01T14:39:06.867Z,99382.39
2018-10-01T14:41:36.508Z,99374.66
2018-10-01T14:44:06.199Z,99366.96
2018-10-01T14:46:36.329Z,99366.95
2018-10-01T14:49:05.973Z,99363.45
2018-10-01T14:51:35.547Z,99366.72
2018-10-01T14:54:05.244Z,99363.94
2018-10-01T14:56:34.809Z,99356.59
2018-10-01T14:59:04.426Z,99362.84
2018-10-01T15:01:33.930Z,99359.58
2018-10-01T15:04:03.484Z,99363.38
2018-10-01T15:06:33.145Z,99370.06
2018-10-01T15:09:02.695Z,99362.65
2018-10-01T15:11:32.200Z,99370.06
2018-10-01T15:14:01.734Z,99360.50
2018-10-01T15:16:31.238Z,99368.20
2018-10-01T15:19:00.838Z,99362.92
2018-10-01T15:21:30.898Z,99360.70
2018-10-01T15:24:00.670Z,99355.48
2018-10-01T15:26:30.184Z,99353.57
2018-10-01T15:28:59.712Z,99352.45
2018-10-01T15:31:29.264Z,99351.12
2018-10-01T15:33:58.805Z,99351.40
2018-10-01T15:36:28.353Z,99351.40
2018-10-01T15:38:57.885Z,99356.88
2018-10-01T15:41:27.503Z,99358.81
2018-10-01T15:43:57.025Z,99359.91
2018-10-01T15:46:26.587Z,99358.84
2018-10-01T15:48:56.092Z,99367.36
2018-10-01T15:51:25.614Z,99370.94
2018-10-01T15:53:55.092Z,99369.05
2018-10-01T15:56:24.666Z,99372.66
2018-10-01T15:58:54.394Z,99360.66
2018-10-01T16:01:24.668Z,99368.34
2018-10-01T16:03:54.190Z,99370.56
2018-10-01T16:06:23.735Z,99370.59
2018-10-01T16:08:53.243Z,99370.91
2018-10-01T16:11:22.861Z,99374.73
2018-10-01T16:13:52.354Z,99378.31
2018-10-01T16:16:21.951Z,99376.17
2018-10-01T16:18:51.478Z,99380.84
2018-10-01T16:21:21.027Z,99376.73
2018-10-01T16:23:50.609Z,99382.48
2018-10-01T16:26:20.151Z,99381.93
2018-10-01T16:28:49.663Z,99382.48
2018-10-01T16:31:19.210Z,99383.86
2018-10-01T16:33:48.695Z,99384.48
2018-10-01T16:36:18.498Z,99387.53
2018-10-01T16:38:48.182Z,99390.55
2018-10-01T16:41:17.737Z,99387.28
2018-10-01T16:43:47.288Z,99392.50
2018-10-01T16:46:16.858Z,99392.78
2018-10-01T16:48:46.458Z,99391.14
2018-10-01T16:51:15.994Z,99390.08
2018-10-01T16:53:45.518Z,99394.74
2018-10-01T16:56:15.094Z,99398.04
2018-10-01T16:58:44.658Z,99402.12
2018-10-01T17:01:14.162Z,99401.87
2018-10-01T17:03:43.712Z,99400.75
2018-10-01T17:06:13.234Z,99395.02
2018-10-01T17:08:42.788Z,99394.77
2018-10-01T17:11:12.324Z,99396.73
2018-10-01T17:13:41.917Z,99394.85
2018-10-01T17:16:11.419Z,99401.19
2018-10-01T17:18:40.946Z,99410.27
2018-10-01T17:21:10.575Z,99411.33
2018-10-01T17:23:40.138Z,99411.88
2018-10-01T17:26:09.647Z,99412.41
2018-10-01T17:28:39.233Z,99410.48
2018-10-01T17:31:08.813Z,99408.59
2018-10-01T17:33:38.298Z,99414.59
2018-10-01T17:36:08.048Z,99408.31
2018-10-01T17:38:37.785Z,99406.37
2018-10-01T17:41:07.530Z,99412.44
2018-10-01T17:43:37.039Z,99414.92
2018-10-01T17:46:06.729Z,99411.12
2018-10-01T17:48:36.258Z,99409.50
2018-10-01T17:51:05.842Z,99406.45
2018-10-01T17:53:35.401Z,99414.73
2018-10-01T17:56:04.904Z,99422.97
2018-10-01T17:58:34.530Z,99336.83
2018-10-01T18:01:04.264Z,99419.95
2018-10-01T18:03:33.806Z,99424.35
2018-10-01T18:06:03.457Z,99427.65
2018-10-01T18:08:32.957Z,99432.00
2018-10-01T18:11:02.668Z,99435.86
2018-10-01T18:13:32.227Z,99436.69
2018-10-01T18:16:01.739Z,99438.33
2018-10-01T18:18:31.302Z,99435.34
2018-10-01T18:21:00.902Z,99438.35
2018-10-01T18:23:30.434Z,99442.20
2018-10-01T18:26:00.287Z,99439.45
2018-10-01T18:28:29.906Z,99438.39
2018-10-01T18:30:59.441Z,99440.87
2018-10-01T18:33:28.963Z,99450.44
2018-10-01T18:35:58.552Z,99445.52
2018-10-01T18:38:28.050Z,99447.72
2018-10-01T18:40:57.623Z,99446.63
2018-10-01T18:43:27.402Z,99444.44
2018-10-01T18:45:56.955Z,99449.93
2018-10-01T18:48:26.563Z,99454.88
2018-10-01T18:50:56.091Z,99455.14
2018-10-01T18:53:25.658Z,99464.73
2018-10-01T18:55:55.180Z,99465.27
2018-10-01T18:58:24.802Z,99462.84
2018-10-01T19:00:54.359Z,99452.70
2018-10-01T19:03:24.046Z,99455.41
2018-10-01T19:05:53.737Z,99459.80
2018-10-01T19:08:23.254Z,99463.10
2018-10-01T19:10:52.835Z,99460.37
2018-10-01T19:13:22.354Z,99464.20
2018-10-01T19:15:51.888Z,99461.18
2018-10-01T19:18:21.486Z,99466.89
2018-10-01T19:20:51.018Z,99460.37
2018-10-01T19:23:20.579Z,99458.17
2018-10-01T19:25:50.124Z,99467.45
2018-10-01T19:28:19.633Z,99467.73
2018-10-01T19:30:49.166Z,99472.67
2018-10-01T19:33:18.831Z,99468.57
2018-10-01T19:35:48.391Z,99470.19
2018-10-01T19:38:17.990Z,99458.44
2018-10-01T19:40:47.518Z,99464.20
2018-10-01T19:43:17.160Z,99468.30
2018-10-01T19:45:46.691Z,99478.95
2018-10-01T19:48:16.239Z,99476.77
2018-10-01T19:50:45.799Z,99481.16
2018-10-01T19:53:15.342Z,99486.88
2018-10-01T19:55:44.902Z,99478.41
2018-10-01T19:58:14.430Z,99483.59
2018-10-01T20:00:44.206Z,99488.53
2018-10-01T20:03:13.737Z,99493.16
2018-10-01T20:05:43.207Z,99497.81
2018-10-01T20:08:12.780Z,99500.29
2018-10-01T20:10:42.377Z,99504.09
2018-10-01T20:13:11.883Z,99393.88
2018-10-01T20:15:41.421Z,99501.36
2018-10-01T20:18:10.921Z,99507.13
2018-10-01T20:20:40.459Z,99500.00
2018-10-01T20:23:09.959Z,99507.67
2018-10-01T20:25:39.519Z,99510.94
2018-10-01T20:28:09.221Z,99509.02
2018-10-01T20:30:38.818Z,99519.69
2018-10-01T20:33:08.287Z,99515.56
2018-10-01T20:35:38.139Z,99516.13
2018-10-01T20:38:07.526Z,99524.61
2018-10-01T20:40:37.039Z,99520.54
2018-10-01T20:43:06.711Z,99524.89
2018-10-01T20:45:36.214Z,99524.92
2018-10-01T20:48:05.781Z,99523.55
2018-10-01T20:50:35.329Z,99526.00
2018-10-01T20:53:04.986Z,99523.84
2018-10-01T20:55:34.471Z,99525.77
2018-10-01T20:58:04.042Z,99527.11
2018-10-01T21:00:33.547Z,99519.73
2018-10-01T21:03:03.159Z,99521.12
2018-10-01T21:05:32.662Z,99515.67
2018-10-01T21:08:02.189Z,99515.67
2018-10-01T21:10:31.702Z,99515.42
2018-10-01T21:13:01.272Z,99507.77
2018-10-01T21:15:30.812Z,99512.14
2018-10-01T21:18:00.387Z,99513.55
2018-10-01T21:20:29.965Z,99519.55
2018-10-01T21:22:59.514Z,99514.63
2018-10-01T21:25:29.110Z,99514.08
2018-10-01T21:27:58.635Z,99515.47
2018-10-01T21:30:28.226Z,99518.17
2018-10-01T21:32:57.882Z,99516.55
2018-10-01T21:35:27.435Z,99514.09
2018-10-01T21:37:57.051Z,99516.25
2018-10-01T21:40:26.617Z,99523.08
2018-10-01T21:42:56.262Z,99526.05
2018-10-01T21:45:25.793Z,99522.77
2018-10-01T21:47:55.307Z,99513.74
2018-10-01T21:50:24.887Z,99516.48
2018-10-01T21:52:54.516Z,99517.30
2018-10-01T21:55:24.112Z,99525.75
2018-10-01T21:57:53.768Z,99526.84
2018-10-01T22:00:23.358Z,99542.13
2018-10-01T22:02:52.886Z,99536.34
2018-10-01T22:05:22.445Z,99531.44
2018-10-01T22:07:52.109Z,99533.35
2018-10-01T22:10:21.611Z,99533.88
2018-10-01T22:12:51.173Z,99535.75
2018-10-01T22:15:20.729Z,99535.16
2018-10-01T22:17:50.282Z,99532.44
2018-10-01T22:20:19.895Z,99530.25
2018-10-01T22:22:49.401Z,99530.52
2018-10-01T22:25:18.967Z,99537.84
2018-10-01T22:27:48.478Z,99538.68
2018-10-01T22:30:18.031Z,99542.22
2018-10-01T22:32:47.535Z,99542.48
2018-10-01T22:35:17.078Z,99541.41
2018-10-01T22:37:46.591Z,99547.38
2018-10-01T22:40:16.150Z,99544.09
2018-10-01T22:42:45.917Z,99556.10
2018-10-01T22:45:15.427Z,99554.44
2018-10-01T22:47:45.015Z,99554.62
2018-10-01T22:50:14.619Z,99554.30
2018-10-01T22:52:44.135Z,99459.37
2018-10-01T22:55:13.760Z,99552.64
2018-10-01T22:57:43.371Z,99548.05
2018-10-01T23:00:13.031Z,99554.30
2018-10-01T23:02:42.527Z,99555.11
2018-10-01T23:05:12.082Z,99552.03
2018-10-01T23:07:41.655Z,99550.12
2018-10-01T23:10:11.214Z,99547.66
2018-10-01T23:12:40.742Z,99544.11
2018-10-01T23:15:10.308Z,99544.91
2018-10-01T23:17:39.909Z,99548.14
2018-10-01T23:20:09.498Z,99548.14
2018-10-01T23:22:39.068Z,99547.34
2018-10-01T23:25:08.591Z,99550.30
2018-10-01T23:27:38.118Z,99550.11
2018-10-01T23:30:07.705Z,99546.53
2018-10-01T23:32:37.298Z,99553.09
2018-10-01T23:35:06.934Z,99558.23
2018-10-01T23:37:36.482Z,99558.55
2018-10-01T23:40:06.171Z,99565.60
2018-10-01T23:42:35.705Z,99564.77
2018-10-01T23:45:05.307Z,99562.55
2018-10-01T23:47:34.834Z,99557.65
2018-10-01T23:50:04.414Z,99560.94
2018-10-01T23:52:33.956Z,99564.41
2018-10-01T23:55:03.491Z,99564.08
2018-10-01T23:57:33.043Z,99566.78
